アティラウ の空港の天気 - METARとTAF

Atyrau Airport ( UATG / GUW ) - カザフスタン Atyrau
飛行場実況気象(Metar)
観測時間04/25 13:00 ORAT (04/25 08:00 UTC)
風向・風速北北西 6m/s
視程10km以上
天気現象
なし
気温20℃
湿度28%
気圧1021hPa
METARUATG 250800Z 33006MPS 300V360 CAVOK 20/01 Q1021 R32/CLRD70 NOSIG RMK QFE767/1023
過去の天気等 Google飛行場航空写真 Wunderground天気予報

過去48時間のMETAR

飛行場予報(TAF)
発表時間: 4/25 10:02 ORAT (4/25 05:02 UTC)
予報対象時間: 25日11時 ORAT ~ 26日11時 ORAT
風向・風速西北西 5m/s
視程10km以上
全天の4割程度の積乱雲 雲底高度 1010m
25日15時 ORAT ~ 25日17時 ORAT に徐々に
風向・風速南西 10m/s
25日22時 ORAT ~ 25日23時 ORAT に徐々に
風向・風速西 5m/s
全天の8割程度の積乱雲 雲底高度 1010m
TAF UATG 250502Z 2506/2606 29005MPS 9999 SCT033CB TX21/2512Z TN10/2602Z
BECMG 2510/2512 23010MPS
BECMG 2517/2518 26005MPS BKN033CB